createdAt,value
2018-10-03T00:03:10.098Z,10.90
2018-10-03T00:08:05.762Z,10.89
2018-10-03T00:13:01.847Z,10.87
2018-10-03T00:17:58.420Z,10.87
2018-10-03T00:22:54.079Z,10.78
2018-10-03T00:27:50.362Z,10.84
2018-10-03T00:32:45.873Z,10.81
2018-10-03T00:37:41.965Z,10.79
2018-10-03T00:42:37.623Z,10.78
2018-10-03T00:47:33.446Z,10.82
2018-10-03T00:52:29.636Z,11.00
2018-10-03T00:57:25.668Z,11.02
2018-10-03T01:02:21.150Z,11.07
2018-10-03T01:07:17.170Z,11.10
2018-10-03T01:12:12.980Z,11.15
2018-10-03T01:17:08.871Z,11.25
2018-10-03T01:22:05.093Z,11.26
2018-10-03T01:27:01.997Z,11.26
2018-10-03T01:31:57.403Z,11.27
2018-10-03T01:36:53.548Z,11.37
2018-10-03T01:41:49.421Z,11.35
2018-10-03T01:46:45.175Z,11.35
2018-10-03T01:51:42.112Z,11.35
2018-10-03T01:56:37.637Z,11.40
2018-10-03T02:01:33.304Z,11.40
2018-10-03T02:06:30.205Z,11.33
2018-10-03T02:11:26.986Z,11.36
2018-10-03T02:16:22.611Z,11.37
2018-10-03T02:21:18.459Z,11.35
2018-10-03T02:26:15.947Z,11.41
2018-10-03T02:31:11.415Z,11.35
2018-10-03T02:36:07.347Z,11.41
2018-10-03T02:41:04.295Z,11.40
2018-10-03T02:45:59.926Z,11.54
2018-10-03T02:50:55.327Z,11.48
2018-10-03T02:55:52.070Z,11.50
2018-10-03T03:00:48.971Z,11.41
2018-10-03T03:05:44.335Z,11.44
2018-10-03T03:10:40.130Z,11.52
2018-10-03T03:15:36.530Z,11.48
2018-10-03T03:20:32.294Z,11.51
2018-10-03T03:25:28.134Z,11.69
2018-10-03T03:30:25.187Z,11.72
2018-10-03T03:35:20.805Z,11.69
2018-10-03T03:40:17.775Z,11.69
2018-10-03T03:45:14.778Z,11.77
2018-10-03T03:50:10.147Z,11.70
2018-10-03T03:55:05.895Z,11.62
2018-10-03T04:00:01.670Z,11.59
2018-10-03T04:04:58.444Z,11.51
2018-10-03T04:09:54.078Z,11.68
2018-10-03T04:14:50.883Z,11.72
2018-10-03T04:19:46.561Z,11.60
2018-10-03T04:24:43.268Z,11.57
2018-10-03T04:29:39.712Z,11.55
2018-10-03T04:34:36.172Z,11.51
2018-10-03T04:39:32.572Z,11.55
2018-10-03T04:44:28.862Z,11.44
2018-10-03T04:49:25.167Z,11.33
2018-10-03T04:54:20.883Z,11.23
2018-10-03T04:59:16.670Z,11.22
2018-10-03T05:04:12.574Z,11.22
2018-10-03T05:09:08.409Z,11.26
2018-10-03T05:14:04.137Z,11.32
2018-10-03T05:18:59.980Z,11.29
2018-10-03T05:23:55.619Z,11.32
2018-10-03T05:28:51.523Z,11.25
2018-10-03T05:33:47.397Z,11.27
2018-10-03T05:38:43.245Z,11.15
2018-10-03T05:43:38.880Z,11.11
2018-10-03T05:48:34.631Z,11.04
2018-10-03T05:53:30.955Z,11.10
2018-10-03T05:58:27.841Z,10.99
2018-10-03T06:03:24.111Z,11.10
2018-10-03T06:08:20.407Z,11.10
2018-10-03T06:13:16.500Z,11.10
2018-10-03T06:18:12.410Z,11.15
2018-10-03T06:23:08.526Z,11.15
2018-10-03T06:28:04.479Z,11.35
2018-10-03T06:33:01.051Z,11.48
2018-10-03T06:37:56.877Z,11.60
2018-10-03T06:42:52.844Z,11.54
2018-10-03T06:47:48.960Z,11.66
2018-10-03T06:52:44.946Z,11.81
2018-10-03T06:57:41.441Z,11.86
2018-10-03T07:02:37.555Z,12.03
2018-10-03T07:07:34.587Z,12.12
2018-10-03T07:12:31.575Z,12.21
2018-10-03T07:17:27.089Z,12.32
2018-10-03T07:22:24.513Z,12.36
2018-10-03T07:27:20.209Z,12.46
2018-10-03T07:32:16.061Z,12.49
2018-10-03T07:37:12.480Z,12.68
2018-10-03T07:42:09.505Z,12.70
2018-10-03T07:47:05.293Z,12.91
2018-10-03T07:52:01.292Z,13.01
2018-10-03T07:56:57.604Z,13.03
2018-10-03T08:01:53.478Z,13.11
2018-10-03T08:06:51.238Z,13.22
2018-10-03T08:11:47.835Z,13.31
2018-10-03T08:16:43.732Z,13.28
2018-10-03T08:21:40.039Z,13.35
2018-10-03T08:26:36.682Z,13.33
2018-10-03T08:31:33.184Z,13.42
2018-10-03T08:36:30.018Z,13.53
2018-10-03T08:41:26.742Z,13.47
2018-10-03T08:46:22.017Z,13.44
2018-10-03T08:51:18.717Z,13.54
2018-10-03T08:56:14.389Z,13.60
2018-10-03T09:01:10.281Z,13.68
2018-10-03T09:06:06.213Z,13.77
2018-10-03T09:11:02.144Z,13.90
2018-10-03T09:15:59.131Z,13.85
2018-10-03T09:20:54.709Z,13.90
2018-10-03T09:25:51.620Z,13.99
2018-10-03T09:30:48.650Z,14.18
2018-10-03T09:35:45.066Z,14.17
2018-10-03T09:40:40.633Z,14.23
2018-10-03T09:45:36.599Z,14.36
2018-10-03T09:50:32.605Z,14.32
2018-10-03T09:55:29.063Z,14.45
2018-10-03T10:00:25.132Z,14.48
2018-10-03T10:05:21.052Z,14.54
2018-10-03T10:10:16.889Z,14.77
2018-10-03T10:15:12.886Z,14.85
2018-10-03T10:20:08.755Z,14.96
2018-10-03T10:25:05.771Z,14.96
2018-10-03T10:30:02.474Z,15.15
2018-10-03T10:34:58.222Z,15.24
2018-10-03T10:39:54.093Z,15.29
2018-10-03T10:44:49.962Z,15.29
2018-10-03T10:49:46.140Z,15.55
2018-10-03T10:54:43.135Z,15.92
2018-10-03T10:59:40.938Z,16.29
2018-10-03T11:04:36.842Z,16.32
2018-10-03T11:09:32.972Z,16.36
2018-10-03T11:14:30.325Z,16.72
2018-10-03T11:19:26.890Z,16.54
2018-10-03T11:24:23.631Z,16.36
2018-10-03T11:29:19.588Z,16.09
2018-10-03T11:34:16.214Z,15.84
2018-10-03T11:39:11.642Z,15.68
2018-10-03T11:44:07.456Z,16.01
2018-10-03T11:49:03.446Z,16.17
2018-10-03T11:53:59.434Z,16.24
2018-10-03T11:58:55.170Z,16.15
2018-10-03T12:03:50.730Z,15.72
2018-10-03T12:08:46.004Z,15.79
2018-10-03T12:13:42.010Z,15.94
2018-10-03T12:18:38.119Z,16.09
2018-10-03T12:23:33.910Z,15.94
2018-10-03T12:28:30.010Z,15.76
2018-10-03T12:33:25.647Z,15.62
2018-10-03T12:38:21.949Z,15.76
2018-10-03T12:43:19.432Z,15.79
2018-10-03T12:48:14.898Z,15.73
2018-10-03T12:53:11.342Z,15.86
2018-10-03T12:58:07.065Z,16.16
2018-10-03T13:03:03.484Z,16.49
2018-10-03T13:08:00.911Z,16.51
2018-10-03T13:12:56.644Z,16.17
2018-10-03T13:17:52.303Z,16.08
2018-10-03T13:22:48.017Z,15.95
2018-10-03T13:27:44.435Z,15.88
2018-10-03T13:32:41.538Z,15.86
2018-10-03T13:37:38.175Z,15.92
2018-10-03T13:42:33.834Z,16.05
2018-10-03T13:47:30.754Z,15.94
2018-10-03T13:52:27.144Z,15.76
2018-10-03T13:57:23.141Z,15.77
2018-10-03T14:02:18.429Z,15.72
2018-10-03T14:07:14.501Z,15.73
2018-10-03T14:12:10.727Z,15.68
2018-10-03T14:17:06.725Z,15.83
2018-10-03T14:22:03.349Z,15.97
2018-10-03T14:26:59.041Z,15.83
2018-10-03T14:31:54.815Z,15.91
2018-10-03T14:36:50.443Z,16.02
2018-10-03T14:41:47.330Z,16.12
2018-10-03T14:46:43.637Z,16.12
2018-10-03T14:51:39.288Z,16.08
2018-10-03T14:56:35.207Z,15.91
2018-10-03T15:01:31.058Z,15.72
2018-10-03T15:06:27.789Z,15.59
2018-10-03T15:11:24.017Z,15.42
2018-10-03T15:16:19.833Z,15.39
2018-10-03T15:21:16.502Z,15.35
2018-10-03T15:26:13.187Z,15.33
2018-10-03T15:31:08.582Z,15.27
2018-10-03T15:36:04.190Z,15.25
2018-10-03T15:41:01.271Z,15.11
2018-10-03T15:45:56.544Z,15.11
2018-10-03T15:50:53.429Z,15.06
2018-10-03T15:55:49.947Z,14.85
2018-10-03T16:00:46.436Z,14.78
2018-10-03T16:05:41.665Z,14.65
2018-10-03T16:10:39.130Z,14.60
2018-10-03T16:15:34.617Z,14.62
2018-10-03T16:20:30.430Z,14.51
2018-10-03T16:25:26.297Z,14.58
2018-10-03T16:30:23.121Z,14.48
2018-10-03T16:35:18.775Z,14.60
2018-10-03T16:40:15.673Z,14.47
2018-10-03T16:45:11.124Z,14.60
2018-10-03T16:50:08.305Z,14.53
2018-10-03T16:55:04.785Z,14.54
2018-10-03T17:00:00.137Z,14.48
2018-10-03T17:04:56.095Z,14.35
2018-10-03T17:09:51.879Z,14.32
2018-10-03T17:14:47.599Z,14.30
2018-10-03T17:19:43.378Z,14.17
2018-10-03T17:24:40.350Z,14.18
2018-10-03T17:29:36.009Z,14.00
2018-10-03T17:34:31.727Z,14.03
2018-10-03T17:39:27.647Z,13.95
2018-10-03T17:44:24.534Z,13.86
2018-10-03T17:49:20.139Z,13.95
2018-10-03T17:54:16.245Z,13.75
2018-10-03T17:59:11.864Z,13.70
2018-10-03T18:04:07.679Z,13.57
2018-10-03T18:09:03.444Z,13.53
2018-10-03T18:14:00.170Z,13.42
2018-10-03T18:18:55.803Z,13.44
2018-10-03T18:23:52.653Z,13.28
2018-10-03T18:28:48.109Z,13.27
2018-10-03T18:33:44.680Z,13.33
2018-10-03T18:38:41.529Z,13.42
2018-10-03T18:43:37.137Z,13.35
2018-10-03T18:48:33.307Z,13.47
2018-10-03T18:53:29.271Z,13.44
2018-10-03T18:58:25.226Z,13.46
2018-10-03T19:03:21.262Z,13.37
2018-10-03T19:08:17.084Z,13.25
2018-10-03T19:13:12.939Z,13.13
2018-10-03T19:18:08.659Z,13.01
2018-10-03T19:23:04.954Z,12.76
2018-10-03T19:28:01.765Z,12.72
2018-10-03T19:32:58.421Z,12.58
2018-10-03T19:37:54.072Z,12.54
2018-10-03T19:42:49.860Z,12.50
2018-10-03T19:47:46.391Z,12.45
2018-10-03T19:52:42.007Z,12.37
2018-10-03T19:57:37.707Z,12.29
2018-10-03T20:02:33.555Z,12.27
2018-10-03T20:07:30.730Z,12.18
2018-10-03T20:12:26.596Z,12.20
2018-10-03T20:17:22.343Z,12.13
2018-10-03T20:22:18.507Z,12.07
2018-10-03T20:27:14.759Z,12.04
2018-10-03T20:32:10.417Z,12.02
2018-10-03T20:37:07.287Z,11.90
2018-10-03T20:42:03.789Z,11.95
2018-10-03T20:46:59.216Z,11.84
2018-10-03T20:51:56.229Z,11.84
2018-10-03T20:56:52.127Z,11.83
2018-10-03T21:01:47.873Z,11.78
2018-10-03T21:06:44.936Z,11.88
2018-10-03T21:11:41.358Z,11.81
2018-10-03T21:16:38.410Z,11.80
2018-10-03T21:21:34.789Z,11.77
2018-10-03T21:26:30.144Z,11.77
2018-10-03T21:31:26.022Z,11.68
2018-10-03T21:36:21.863Z,11.65
2018-10-03T21:41:17.624Z,11.68
2018-10-03T21:46:13.527Z,11.60
2018-10-03T21:51:09.346Z,11.63
2018-10-03T21:56:05.968Z,11.44
2018-10-03T22:01:01.508Z,11.44
2018-10-03T22:05:58.435Z,11.35
2018-10-03T22:10:55.104Z,11.33
2018-10-03T22:15:50.979Z,11.18
2018-10-03T22:20:47.678Z,11.18
2018-10-03T22:25:43.288Z,11.14
2018-10-03T22:30:39.062Z,11.08
2018-10-03T22:35:35.085Z,11.10
2018-10-03T22:40:31.802Z,11.11
2018-10-03T22:45:27.555Z,11.10
2018-10-03T22:50:23.433Z,11.11
2018-10-03T22:55:19.286Z,11.19
2018-10-03T23:00:15.872Z,11.12
2018-10-03T23:05:11.564Z,11.12
2018-10-03T23:10:07.614Z,11.11
2018-10-03T23:15:03.612Z,11.10
2018-10-03T23:19:59.792Z,11.12
2018-10-03T23:24:55.570Z,11.10
2018-10-03T23:29:51.393Z,11.08
2018-10-03T23:34:47.791Z,11.11
2018-10-03T23:39:43.482Z,11.08
2018-10-03T23:44:40.228Z,11.07
2018-10-03T23:49:36.623Z,11.15
2018-10-03T23:54:33.095Z,11.32
2018-10-03T23:59:29.528Z,11.37
